Aérodrome :
LOGIN :

S'inscrire | Disclaimer

   EN    FR    IT 

 










Légende :    VFR   VFR Marginal   IFR   IFR Intensif   IFR Très Intensif
Visi : 
Plafond : 
>= 8 km
>= 3000ft
5 à 8 km
1000 à 3000 ft
1500m à 5 km
500 à 1000 ft
800 à 1500m
200 à 500 ft
< 800m
< 200 ft
Symboles :   Orages  Brouillard  Fortes neiges  Fortes précipitations  Vent > 20 kt
SIGMETs :   Divers  Orages  Givrage  Turbulence  Onde Orograph.  Cendres Volcan.






- Altitude de l'aérodrome : 1475 ft


LSZC - Buochs Stans

DERNIER METAR :
  • 151950Z AUTO 34006KT 9999 OVC015 M02/M05 Q1025

METARs EXPIRÉS :
  • 151920Z AUTO 33007KT 9999 OVC015 M02/M05 Q1025
  • 151850Z AUTO 29004KT 260V330 9999 OVC014 M02/M05 Q1025
  • 151820Z AUTO VRB05KT 9999 BKN013 BKN015 OVC017 M02/M05 Q1025
  • 151750Z AUTO 32010KT 6000 BKN018 M02/M05 Q1024 RESN
  • 151720Z AUTO 33008KT 290V010 8000 BKN016 M01/M04 Q1024

TAF TAF LSZC
Valide du 15 à 15h jusqu'au 16 à 00h UTC


151425Z 1515/1524 VRB02KT 7000 -SN BKN008 BKN012
PROB40
TEMPO 1515/1517 1200 SN
PROB40 1518/1524 NSW BKN012



MET'MAP, la Météo Aéronautique d'un coup d'oeil ! - Copyright ORBIFLY Décembre 2007 - Disclaimer

ORBIFLY MET'MAP TEAM :

Programmation & Développement : Alexandra Zaïnal
Sur une idée originale de : Baudouin d'Aumeries
Assistance à la programmation : Marc-Olivier Méhu
Soutien technique & logistique : Manuel Goepfert

Contact : metmap@orbifly.com




SOURCES & CREDITS :

   NOAA